createdAt,value
2022-10-06T00:00:47.614Z,242.75
2022-10-06T00:01:47.499Z,243.83
2022-10-06T00:02:47.459Z,242.75
2022-10-06T00:03:47.440Z,240.62
2022-10-06T00:04:47.405Z,241.15
2022-10-06T00:05:47.424Z,239.56
2022-10-06T00:06:47.766Z,237.48
2022-10-06T00:07:47.383Z,236.62
2022-10-06T00:08:47.368Z,237.14
2022-10-06T00:09:47.365Z,236.79
2022-10-06T00:10:47.349Z,235.94
2022-10-06T00:11:47.355Z,234.43
2022-10-06T00:12:47.484Z,234.76
2022-10-06T00:13:47.315Z,235.10
2022-10-06T00:14:47.323Z,235.10
2022-10-06T00:15:47.342Z,233.76
2022-10-06T00:16:47.287Z,234.76
2022-10-06T00:17:47.280Z,235.10
2022-10-06T00:18:47.474Z,233.59
2022-10-06T00:19:47.257Z,235.44
2022-10-06T00:20:47.248Z,235.10
2022-10-06T00:21:47.245Z,235.10
2022-10-06T00:22:47.222Z,236.28
2022-10-06T00:23:47.236Z,236.28
2022-10-06T00:24:47.579Z,235.10
2022-10-06T00:25:47.197Z,236.79
2022-10-06T00:26:47.183Z,237.14
2022-10-06T00:27:47.181Z,233.76
2022-10-06T00:28:47.284Z,234.09
2022-10-06T00:29:47.148Z,232.43
2022-10-06T00:30:47.534Z,233.59
2022-10-06T00:31:47.131Z,232.93
2022-10-06T00:32:47.122Z,231.12
2022-10-06T00:33:47.123Z,230.48
2022-10-06T00:34:47.096Z,228.87
2022-10-06T00:35:47.078Z,229.35
2022-10-06T00:36:47.243Z,228.87
2022-10-06T00:37:47.057Z,227.12
2022-10-06T00:38:47.047Z,226.65
2022-10-06T00:39:47.045Z,226.65
2022-10-06T00:40:47.027Z,225.87
2022-10-06T00:41:47.025Z,224.33
2022-10-06T00:42:47.252Z,224.94
2022-10-06T00:43:46.997Z,224.94
2022-10-06T00:44:46.996Z,223.41
2022-10-06T00:45:46.980Z,221.60
2022-10-06T00:46:47.006Z,221.90
2022-10-06T00:47:46.947Z,223.41
2022-10-06T00:48:47.097Z,223.41
2022-10-06T00:49:46.947Z,222.05
2022-10-06T00:50:46.916Z,222.81
2022-10-06T00:51:47.063Z,222.65
2022-10-06T00:52:46.908Z,222.05
2022-10-06T00:53:47.291Z,223.26
2022-10-06T00:54:46.888Z,223.11
2022-10-06T00:55:46.867Z,220.12
2022-10-06T00:56:46.866Z,219.38
2022-10-06T00:57:46.870Z,218.79
2022-10-06T00:58:46.864Z,216.63
2022-10-06T00:59:47.068Z,215.21
2022-10-06T01:00:46.836Z,216.63
2022-10-06T01:01:46.861Z,216.20
2022-10-06T01:02:46.942Z,217.06
2022-10-06T01:03:46.807Z,216.77
2022-10-06T01:04:46.838Z,218.50
2022-10-06T01:05:47.101Z,217.92
2022-10-06T01:06:46.774Z,218.50
2022-10-06T01:07:46.777Z,217.78
2022-10-06T01:08:46.744Z,218.21
2022-10-06T01:09:46.725Z,217.20
2022-10-06T01:10:46.830Z,217.20
2022-10-06T01:11:47.106Z,218.65
2022-10-06T01:12:46.692Z,217.78
2022-10-06T01:13:46.715Z,217.49
2022-10-06T01:14:46.688Z,218.50
2022-10-06T01:15:46.685Z,216.91
2022-10-06T01:16:46.695Z,218.50
2022-10-06T01:17:46.804Z,217.06
2022-10-06T01:18:46.640Z,216.77
2022-10-06T01:19:46.653Z,217.63
2022-10-06T01:20:46.653Z,217.06
2022-10-06T01:21:46.611Z,217.78
2022-10-06T01:22:46.600Z,216.34
2022-10-06T01:23:47.017Z,215.21
2022-10-06T01:24:46.583Z,216.77
2022-10-06T01:25:46.570Z,215.77
2022-10-06T01:26:46.563Z,217.78
2022-10-06T01:27:46.540Z,217.35
2022-10-06T01:28:46.611Z,219.53
2022-10-06T01:29:46.714Z,220.71
2022-10-06T01:30:46.875Z,220.26
2022-10-06T01:31:46.490Z,218.21
2022-10-06T01:32:46.482Z,219.38
2022-10-06T01:33:46.471Z,220.26
2022-10-06T01:34:46.473Z,219.09
2022-10-06T01:35:46.459Z,221.15
2022-10-06T01:36:46.656Z,220.56
2022-10-06T01:37:46.450Z,222.35
2022-10-06T01:38:46.420Z,222.35
2022-10-06T01:39:46.411Z,221.75
2022-10-06T01:40:46.414Z,221.90
2022-10-06T01:41:46.397Z,223.57
2022-10-06T01:42:49.034Z,222.05
2022-10-06T01:43:46.371Z,222.96
2022-10-06T01:44:46.356Z,224.48
2022-10-06T01:45:46.353Z,222.96
2022-10-06T01:46:46.382Z,222.35
2022-10-06T01:47:46.341Z,222.20
2022-10-06T01:48:46.640Z,220.26
2022-10-06T01:49:46.301Z,219.97
2022-10-06T01:50:46.291Z,218.79
2022-10-06T01:51:46.300Z,218.79
2022-10-06T01:52:46.267Z,219.67
2022-10-06T01:53:46.282Z,217.78
2022-10-06T01:54:46.951Z,216.63
2022-10-06T01:55:46.252Z,216.34
2022-10-06T01:56:46.265Z,216.77
2022-10-06T01:57:46.211Z,217.78
2022-10-06T01:58:46.250Z,216.91
2022-10-06T01:59:46.207Z,217.49
2022-10-06T02:00:46.420Z,216.77
2022-10-06T02:01:46.219Z,217.49
2022-10-06T02:02:46.190Z,216.34
2022-10-06T02:03:46.153Z,216.77
2022-10-06T02:04:46.142Z,216.34
2022-10-06T02:05:46.134Z,217.35
2022-10-06T02:06:46.504Z,216.63
2022-10-06T02:07:46.126Z,216.06
2022-10-06T02:08:46.103Z,214.64
2022-10-06T02:09:46.089Z,215.77
2022-10-06T02:10:46.089Z,216.49
2022-10-06T02:11:46.062Z,214.36
2022-10-06T02:12:46.393Z,214.50
2022-10-06T02:13:46.057Z,214.93
2022-10-06T02:14:46.092Z,215.35
2022-10-06T02:15:46.156Z,216.20
2022-10-06T02:16:46.041Z,217.06
2022-10-06T02:17:46.011Z,214.22
2022-10-06T02:18:46.216Z,215.35
2022-10-06T02:19:45.978Z,215.35
2022-10-06T02:20:45.984Z,214.93
2022-10-06T02:21:45.973Z,214.64
2022-10-06T02:22:45.944Z,214.93
2022-10-06T02:23:45.964Z,215.07
2022-10-06T02:24:46.250Z,214.08
2022-10-06T02:25:45.916Z,213.39
2022-10-06T02:26:45.905Z,214.08
2022-10-06T02:27:45.910Z,212.97
2022-10-06T02:28:45.938Z,212.70
2022-10-06T02:29:45.861Z,211.19
2022-10-06T02:30:46.007Z,209.97
2022-10-06T02:31:45.976Z,209.30
2022-10-06T02:32:45.834Z,207.85
2022-10-06T02:33:45.818Z,207.85
2022-10-06T02:34:45.804Z,206.67
2022-10-06T02:35:45.802Z,206.93
2022-10-06T02:36:46.113Z,205.76
2022-10-06T02:37:45.768Z,205.12
2022-10-06T02:38:45.753Z,205.89
2022-10-06T02:39:45.757Z,204.22
2022-10-06T02:40:45.733Z,203.72
2022-10-06T02:41:45.730Z,203.09
2022-10-06T02:42:46.019Z,202.33
2022-10-06T02:43:45.710Z,201.59
2022-10-06T02:44:45.694Z,202.09
2022-10-06T02:45:45.684Z,200.48
2022-10-06T02:46:45.697Z,200.11
2022-10-06T02:47:45.661Z,199.38
2022-10-06T02:48:45.993Z,198.06
2022-10-06T02:49:45.649Z,197.58
2022-10-06T02:50:45.641Z,197.11
2022-10-06T02:51:45.641Z,195.58
2022-10-06T02:52:45.604Z,195.93
2022-10-06T02:53:45.611Z,195.23
2022-10-06T02:54:45.744Z,196.16
2022-10-06T02:55:45.585Z,196.52
2022-10-06T02:56:45.566Z,196.52
2022-10-06T02:57:45.556Z,195.81
2022-10-06T02:58:45.569Z,195.58
2022-10-06T02:59:45.537Z,194.88
2022-10-06T03:00:46.105Z,194.19
2022-10-06T03:01:45.660Z,193.50
2022-10-06T03:02:45.692Z,194.31
2022-10-06T03:03:45.487Z,192.71
2022-10-06T03:04:45.481Z,193.28
2022-10-06T03:05:45.494Z,191.81
2022-10-06T03:06:45.698Z,192.37
2022-10-06T03:07:45.453Z,191.58
2022-10-06T03:08:45.443Z,192.14
2022-10-06T03:09:45.436Z,191.25
2022-10-06T03:10:45.422Z,191.81
2022-10-06T03:11:45.407Z,191.14
2022-10-06T03:12:45.619Z,189.81
2022-10-06T03:13:45.381Z,191.02
2022-10-06T03:14:45.376Z,190.47
2022-10-06T03:15:45.390Z,191.92
2022-10-06T03:16:45.352Z,193.85
2022-10-06T03:17:45.343Z,194.88
2022-10-06T03:18:45.488Z,195.58
2022-10-06T03:19:45.312Z,196.40
2022-10-06T03:20:45.318Z,197.70
2022-10-06T03:21:45.297Z,198.06
2022-10-06T03:22:45.283Z,198.66
2022-10-06T03:23:45.283Z,198.30
2022-10-06T03:24:45.747Z,198.90
2022-10-06T03:25:45.259Z,199.38
2022-10-06T03:26:45.253Z,199.14
2022-10-06T03:27:45.228Z,198.42
2022-10-06T03:28:45.289Z,198.78
2022-10-06T03:29:45.217Z,198.66
2022-10-06T03:30:45.380Z,197.82
2022-10-06T03:31:45.216Z,196.63
2022-10-06T03:32:45.237Z,197.46
2022-10-06T03:33:45.174Z,196.52
2022-10-06T03:34:45.168Z,198.18
2022-10-06T03:35:45.158Z,197.46
2022-10-06T03:36:45.536Z,196.99
2022-10-06T03:37:45.258Z,196.40
2022-10-06T03:38:45.118Z,195.81
2022-10-06T03:39:45.112Z,194.08
2022-10-06T03:40:45.105Z,193.73
2022-10-06T03:41:45.070Z,193.62
2022-10-06T03:42:45.317Z,193.50
2022-10-06T03:43:45.071Z,192.14
2022-10-06T03:44:45.061Z,190.14
2022-10-06T03:45:45.044Z,190.36
2022-10-06T03:46:45.035Z,188.72
2022-10-06T03:47:45.020Z,188.61
2022-10-06T03:48:45.236Z,188.18
2022-10-06T03:49:45.009Z,188.39
2022-10-06T03:50:44.988Z,189.81
2022-10-06T03:51:44.980Z,187.85
2022-10-06T03:52:44.966Z,188.39
2022-10-06T03:53:44.949Z,188.18
2022-10-06T03:54:45.129Z,187.75
2022-10-06T03:55:44.939Z,188.83
2022-10-06T03:56:44.931Z,188.83
2022-10-06T03:57:45.033Z,187.00
2022-10-06T03:58:44.908Z,186.57
2022-10-06T03:59:44.881Z,187.00
2022-10-06T04:00:45.075Z,186.47
2022-10-06T04:01:44.909Z,184.39
2022-10-06T04:02:44.939Z,180.80
2022-10-06T04:03:44.851Z,175.29
2022-10-06T04:04:44.834Z,172.75
2022-10-06T04:05:44.850Z,170.11
2022-10-06T04:06:45.034Z,168.22
2022-10-06T04:07:44.886Z,165.71
2022-10-06T04:08:44.811Z,165.55
2022-10-06T04:09:44.818Z,167.21
2022-10-06T04:10:44.783Z,170.45
2022-10-06T04:11:44.807Z,171.15
2022-10-06T04:12:44.913Z,170.98
2022-10-06T04:13:44.746Z,172.93
2022-10-06T04:14:44.751Z,176.21
2022-10-06T04:15:44.710Z,177.71
2022-10-06T04:16:44.761Z,178.86
2022-10-06T04:17:44.725Z,180.40
2022-10-06T04:18:44.851Z,180.99
2022-10-06T04:19:44.687Z,183.18
2022-10-06T04:20:44.667Z,183.58
2022-10-06T04:21:44.637Z,184.19
2022-10-06T04:22:44.644Z,183.38
2022-10-06T04:23:44.625Z,183.58
2022-10-06T04:24:44.784Z,182.18
2022-10-06T04:25:44.607Z,182.18
2022-10-06T04:26:44.596Z,185.42
2022-10-06T04:27:44.610Z,185.52
2022-10-06T04:28:44.765Z,188.18
2022-10-06T04:29:44.556Z,189.15
2022-10-06T04:30:44.558Z,193.73
2022-10-06T04:31:44.596Z,196.52
2022-10-06T04:32:44.576Z,198.66
2022-10-06T04:33:44.704Z,201.46
2022-10-06T04:34:44.509Z,203.34
2022-10-06T04:35:44.503Z,203.46
2022-10-06T04:36:44.491Z,205.89
2022-10-06T04:37:44.543Z,206.54
2022-10-06T04:38:44.465Z,208.77
2022-10-06T04:39:44.619Z,209.17
2022-10-06T04:40:44.443Z,210.51
2022-10-06T04:41:44.435Z,210.92
2022-10-06T04:42:44.433Z,210.38
2022-10-06T04:43:44.404Z,211.74
2022-10-06T04:44:44.401Z,210.51
2022-10-06T04:45:44.617Z,212.56
2022-10-06T04:46:45.158Z,211.46
2022-10-06T04:47:44.362Z,211.05
2022-10-06T04:48:44.371Z,210.51
2022-10-06T04:49:44.342Z,212.28
2022-10-06T04:50:44.338Z,214.64
2022-10-06T04:51:45.047Z,213.39
2022-10-06T04:52:44.328Z,215.77
2022-10-06T04:53:44.313Z,216.49
2022-10-06T04:54:44.295Z,212.97
2022-10-06T04:55:44.286Z,209.57
2022-10-06T04:56:44.273Z,209.71
2022-10-06T04:57:44.437Z,209.04
2022-10-06T04:58:44.267Z,211.33
2022-10-06T04:59:44.247Z,212.56
2022-10-06T05:00:44.262Z,213.53
2022-10-06T05:01:44.274Z,214.36
2022-10-06T05:02:44.217Z,214.22
2022-10-06T05:03:44.362Z,214.78
2022-10-06T05:04:44.232Z,213.39
2022-10-06T05:05:44.189Z,211.87
2022-10-06T05:06:44.165Z,213.11
2022-10-06T05:07:44.164Z,212.01
2022-10-06T05:08:44.144Z,210.24
2022-10-06T05:09:44.317Z,209.04
2022-10-06T05:10:44.125Z,208.51
2022-10-06T05:11:44.136Z,207.85
2022-10-06T05:12:44.158Z,207.71
2022-10-06T05:13:44.086Z,206.28
2022-10-06T05:14:44.066Z,204.35
2022-10-06T05:15:44.243Z,203.97
2022-10-06T05:16:44.106Z,203.59
2022-10-06T05:17:44.035Z,204.22
2022-10-06T05:18:44.851Z,205.24
2022-10-06T05:19:51.528Z,205.24
2022-10-06T05:20:53.727Z,205.24
2022-10-06T05:21:51.553Z,204.99
2022-10-06T05:22:51.494Z,205.76
2022-10-06T05:23:51.483Z,207.58
2022-10-06T05:24:51.473Z,206.93
2022-10-06T05:25:51.473Z,208.24
2022-10-06T05:27:05.663Z,207.45
2022-10-06T05:27:51.453Z,205.63
2022-10-06T05:28:44.217Z,206.54
2022-10-06T05:29:51.430Z,206.15
2022-10-06T05:30:51.428Z,207.19
2022-10-06T05:31:43.920Z,207.98
2022-10-06T05:32:44.111Z,208.77
2022-10-06T05:33:43.868Z,210.24
2022-10-06T05:34:43.867Z,209.84
2022-10-06T05:35:43.858Z,208.64
2022-10-06T05:36:43.853Z,209.30
2022-10-06T05:37:43.839Z,210.24
2022-10-06T05:38:44.024Z,210.78
2022-10-06T05:39:43.820Z,210.38
2022-10-06T05:40:43.795Z,209.84
2022-10-06T05:41:43.819Z,209.17
2022-10-06T05:42:43.796Z,211.33
2022-10-06T05:43:43.785Z,211.74
2022-10-06T05:44:43.916Z,211.33
2022-10-06T05:45:43.789Z,211.60
2022-10-06T05:46:43.729Z,212.42
2022-10-06T05:47:43.733Z,217.63
2022-10-06T05:48:43.716Z,218.79
2022-10-06T05:49:43.709Z,222.35
2022-10-06T05:50:43.877Z,224.79
2022-10-06T05:51:43.702Z,228.71
2022-10-06T05:52:43.680Z,230.31
2022-10-06T05:53:43.668Z,235.94
2022-10-06T05:54:43.639Z,239.91
2022-10-06T05:55:43.637Z,245.11
2022-10-06T05:56:44.365Z,246.40
2022-10-06T05:57:43.625Z,251.69
2022-10-06T05:58:43.589Z,254.03
2022-10-06T05:59:43.601Z,254.62
2022-10-06T06:00:43.594Z,255.61
2022-10-06T06:01:43.641Z,255.61
2022-10-06T06:02:43.792Z,256.81
2022-10-06T06:03:43.547Z,256.01
2022-10-06T06:04:43.537Z,255.01
2022-10-06T06:05:43.542Z,256.81
2022-10-06T06:06:43.536Z,255.81
2022-10-06T06:07:43.513Z,254.62
2022-10-06T06:08:43.850Z,251.50
2022-10-06T06:09:43.494Z,250.54
2022-10-06T06:10:43.474Z,250.92
2022-10-06T06:11:43.459Z,252.08
2022-10-06T06:12:43.461Z,252.08
2022-10-06T06:13:43.444Z,254.42
2022-10-06T06:14:43.652Z,255.61
2022-10-06T06:15:43.417Z,254.03
2022-10-06T06:16:43.452Z,257.21
2022-10-06T06:17:43.391Z,257.21
2022-10-06T06:18:43.389Z,256.81
2022-10-06T06:19:43.379Z,259.25
2022-10-06T06:20:43.526Z,258.84
2022-10-06T06:21:43.364Z,256.01
2022-10-06T06:22:43.349Z,258.02
2022-10-06T06:23:43.348Z,258.23
2022-10-06T06:24:43.322Z,256.41
2022-10-06T06:25:43.650Z,258.02
2022-10-06T06:26:43.290Z,255.81
2022-10-06T06:27:43.289Z,254.42
2022-10-06T06:28:43.369Z,250.73
2022-10-06T06:29:43.275Z,247.33
2022-10-06T06:30:43.292Z,247.14
2022-10-06T06:31:43.476Z,246.40
2022-10-06T06:32:43.239Z,248.83
2022-10-06T06:33:43.220Z,248.83
2022-10-06T06:34:43.210Z,250.15
2022-10-06T06:35:43.220Z,249.77
2022-10-06T06:36:43.192Z,250.35
2022-10-06T06:37:43.350Z,249.58
2022-10-06T06:38:43.174Z,250.73
2022-10-06T06:39:43.158Z,252.08
2022-10-06T06:40:43.150Z,252.46
2022-10-06T06:41:43.136Z,251.88
2022-10-06T06:42:43.119Z,252.66
2022-10-06T06:43:43.327Z,251.88
2022-10-06T06:44:43.113Z,251.88
2022-10-06T06:45:43.131Z,251.30
2022-10-06T06:46:43.090Z,250.73
2022-10-06T06:47:43.081Z,250.35
2022-10-06T06:48:43.056Z,247.33
2022-10-06T06:49:43.223Z,248.83
2022-10-06T06:50:43.070Z,247.70
2022-10-06T06:51:43.032Z,247.70
2022-10-06T06:52:43.023Z,245.29
2022-10-06T06:53:42.997Z,245.48
2022-10-06T06:54:42.993Z,245.11
2022-10-06T06:55:43.353Z,244.56
2022-10-06T06:56:42.979Z,242.75
2022-10-06T06:57:42.983Z,240.97
2022-10-06T06:58:42.969Z,240.09
2022-10-06T06:59:42.945Z,240.62
2022-10-06T07:00:42.934Z,239.74
2022-10-06T07:01:43.063Z,235.27
2022-10-06T07:02:42.922Z,234.09
2022-10-06T07:03:57.059Z,235.77
2022-10-06T07:04:43.902Z,234.76
2022-10-06T07:05:42.879Z,233.93
2022-10-06T07:06:44.829Z,233.43
2022-10-06T07:07:43.014Z,232.10
2022-10-06T07:08:43.027Z,234.26
2022-10-06T07:09:42.821Z,236.45
2022-10-06T07:10:42.814Z,236.45
2022-10-06T07:11:42.953Z,238.52
2022-10-06T07:12:42.802Z,235.77
2022-10-06T07:13:42.953Z,237.14
2022-10-06T07:14:42.770Z,236.45
2022-10-06T07:15:42.801Z,233.76
2022-10-06T07:16:50.267Z,237.48
2022-10-06T07:17:50.248Z,235.77
2022-10-06T07:18:51.445Z,236.28
2022-10-06T07:19:50.216Z,236.79
2022-10-06T07:20:50.223Z,240.09
2022-10-06T07:21:50.223Z,240.62
2022-10-06T07:22:50.200Z,242.21
2022-10-06T07:23:50.193Z,245.48
2022-10-06T07:24:52.387Z,247.70
2022-10-06T07:25:50.181Z,249.01
2022-10-06T07:26:50.159Z,249.39
2022-10-06T07:27:42.620Z,250.54
2022-10-06T07:28:42.656Z,255.41
2022-10-06T07:29:42.619Z,259.45
2022-10-06T07:30:42.763Z,264.05
2022-10-06T07:31:42.686Z,268.36
2022-10-06T07:32:42.603Z,271.70
2022-10-06T07:33:42.578Z,275.81
2022-10-06T07:35:42.542Z,281.97
2022-10-06T07:36:42.569Z,284.91
2022-10-06T07:37:42.523Z,287.91
2022-10-06T07:38:42.519Z,289.43
2022-10-06T07:39:42.512Z,288.92
2022-10-06T07:40:46.509Z,292.01
2022-10-06T07:41:43.821Z,293.05
2022-10-06T07:42:42.471Z,294.89
2022-10-06T07:43:42.461Z,297.30
2022-10-06T07:44:42.454Z,300.84
2022-10-06T07:45:42.630Z,300.84
2022-10-06T07:46:42.444Z,306.46
2022-10-06T07:47:42.592Z,311.41
2022-10-06T07:48:42.418Z,310.82
2022-10-06T07:49:42.492Z,313.79
2022-10-06T07:50:42.396Z,313.79
2022-10-06T07:51:42.388Z,314.39
2022-10-06T07:52:42.375Z,315.60
2022-10-06T07:53:42.531Z,320.22
2022-10-06T07:54:42.349Z,321.16
2022-10-06T07:55:42.359Z,322.42
2022-10-06T07:56:42.331Z,325.30
2022-10-06T07:57:42.318Z,332.22
2022-10-06T07:58:42.299Z,333.23
2022-10-06T07:59:43.028Z,334.25
2022-10-06T08:00:42.286Z,338.39
2022-10-06T08:01:42.391Z,336.30
2022-10-06T08:02:42.338Z,339.79
2022-10-06T08:03:42.253Z,343.34
2022-10-06T08:04:42.981Z,342.98
2022-10-06T08:05:42.400Z,341.20
2022-10-06T08:06:42.232Z,344.06
2022-10-06T08:07:42.207Z,343.34
2022-10-06T08:08:42.219Z,345.88
2022-10-06T08:09:42.187Z,345.51
2022-10-06T08:10:42.178Z,347.71
2022-10-06T08:11:42.359Z,343.70
2022-10-06T08:12:42.158Z,343.70
2022-10-06T08:13:42.145Z,342.27
2022-10-06T08:14:42.158Z,342.62
2022-10-06T08:15:42.165Z,341.91
2022-10-06T08:16:42.107Z,344.06
2022-10-06T08:17:42.317Z,347.71
2022-10-06T08:18:46.578Z,349.19
2022-10-06T08:19:43.111Z,346.97
2022-10-06T08:20:42.111Z,347.71
2022-10-06T08:21:42.075Z,348.45
2022-10-06T08:22:42.047Z,350.68
2022-10-06T08:23:42.249Z,351.81
2022-10-06T08:25:04.292Z,354.47
2022-10-06T08:25:43.006Z,352.57
2022-10-06T08:26:41.992Z,354.85
2022-10-06T08:27:41.977Z,354.85
2022-10-06T08:28:42.041Z,360.70
2022-10-06T08:29:42.294Z,361.50
2022-10-06T08:30:41.982Z,361.10
2022-10-06T08:31:41.994Z,361.50
2022-10-06T08:32:41.945Z,365.93
2022-10-06T08:33:41.940Z,368.81
2022-10-06T08:34:41.947Z,367.16
2022-10-06T08:35:42.133Z,370.06
2022-10-06T08:36:52.128Z,370.90
2022-10-06T08:37:42.876Z,372.16
2022-10-06T08:38:41.885Z,367.99
2022-10-06T08:39:41.873Z,368.81
2022-10-06T08:40:41.878Z,370.06
2022-10-06T08:41:42.171Z,374.28
2022-10-06T08:42:41.815Z,375.14
2022-10-06T08:43:41.809Z,380.83
2022-10-06T08:44:41.806Z,383.02
2022-10-06T08:45:41.840Z,388.60
2022-10-06T08:46:41.784Z,389.96
2022-10-06T08:47:41.966Z,392.02
2022-10-06T08:48:41.768Z,392.25
2022-10-06T08:49:41.766Z,394.81
2022-10-06T08:50:41.745Z,395.75
2022-10-06T08:51:41.738Z,394.34
2022-10-06T08:52:41.722Z,395.28
2022-10-06T08:53:41.918Z,399.54
2022-10-06T08:54:41.704Z,397.16
2022-10-06T08:55:41.919Z,399.06
2022-10-06T08:56:41.683Z,398.35
2022-10-06T08:57:41.664Z,401.71
2022-10-06T08:58:41.648Z,400.50
2022-10-06T08:59:41.644Z,401.71
2022-10-06T09:00:41.632Z,405.62
2022-10-06T09:01:41.783Z,406.36
2022-10-06T09:02:41.662Z,405.37
2022-10-06T09:03:41.622Z,406.36
2022-10-06T09:04:41.607Z,409.10
2022-10-06T09:05:41.586Z,408.60
2022-10-06T09:06:41.576Z,411.88
2022-10-06T09:07:41.725Z,409.35
2022-10-06T09:08:41.549Z,406.61
2022-10-06T09:09:41.564Z,403.90
2022-10-06T09:10:41.533Z,403.90
2022-10-06T09:11:41.518Z,404.14
2022-10-06T09:12:41.502Z,397.63
2022-10-06T09:13:41.653Z,397.16
2022-10-06T09:14:41.507Z,399.54
2022-10-06T09:15:41.509Z,400.74
2022-10-06T09:16:41.463Z,400.26
2022-10-06T09:17:41.458Z,406.85
2022-10-06T09:19:06.708Z,410.86
2022-10-06T09:19:42.627Z,407.85
2022-10-06T09:20:41.434Z,407.35
2022-10-06T09:21:41.399Z,407.85
2022-10-06T09:22:41.402Z,407.35
2022-10-06T09:23:41.411Z,408.10
2022-10-06T09:24:46.249Z,408.85
2022-10-06T09:25:42.527Z,409.60
2022-10-06T09:26:41.357Z,408.10
2022-10-06T09:27:41.518Z,409.35
2022-10-06T09:28:41.398Z,409.85
2022-10-06T09:29:41.361Z,412.13
2022-10-06T09:30:41.307Z,412.90
2022-10-06T09:31:41.342Z,417.29
2022-10-06T09:32:41.323Z,420.18
2022-10-06T09:33:41.472Z,423.92
2022-10-06T09:34:41.277Z,424.46
2022-10-06T09:35:41.270Z,422.58
2022-10-06T09:36:41.268Z,424.19
2022-10-06T09:37:41.243Z,422.85
2022-10-06T09:38:41.264Z,422.85
2022-10-06T09:39:41.380Z,419.65
2022-10-06T09:40:41.197Z,420.98
2022-10-06T09:41:41.188Z,426.36
2022-10-06T09:42:41.251Z,430.77
2022-10-06T09:43:41.247Z,430.77
2022-10-06T09:44:41.153Z,433.85
2022-10-06T09:45:41.501Z,434.42
2022-10-06T09:46:41.155Z,434.42
2022-10-06T09:47:41.179Z,435.84
2022-10-06T09:48:41.109Z,434.42
2022-10-06T09:49:41.112Z,436.12
2022-10-06T09:50:41.112Z,433.85
2022-10-06T09:51:41.233Z,434.98
2022-10-06T09:52:41.069Z,435.27
2022-10-06T09:53:41.051Z,436.12
2022-10-06T09:54:41.049Z,434.98
2022-10-06T09:55:41.049Z,432.73
2022-10-06T09:56:41.038Z,433.57
2022-10-06T09:57:41.279Z,434.42
2022-10-06T09:58:41.001Z,436.69
2022-10-06T09:59:41.012Z,437.84
2022-10-06T10:00:41.025Z,437.27
2022-10-06T10:01:40.970Z,438.13
2022-10-06T10:02:41.140Z,436.69
2022-10-06T10:03:44.492Z,439.57
2022-10-06T10:04:41.944Z,442.20
2022-10-06T10:05:40.942Z,445.45
2022-10-06T10:06:40.928Z,445.45
2022-10-06T10:07:40.913Z,443.67
2022-10-06T10:08:40.904Z,445.15
2022-10-06T10:09:41.073Z,439.28
2022-10-06T10:10:40.879Z,434.70
2022-10-06T10:11:40.877Z,438.99
2022-10-06T10:12:40.855Z,442.78
2022-10-06T10:13:40.862Z,443.67
2022-10-06T10:14:40.835Z,446.04
2022-10-06T10:15:41.068Z,448.44
2022-10-06T10:16:40.821Z,447.84
2022-10-06T10:17:40.812Z,444.85
2022-10-06T10:18:40.792Z,445.45
2022-10-06T10:19:40.786Z,442.49
2022-10-06T10:20:40.793Z,440.73
2022-10-06T10:21:40.912Z,445.45
2022-10-06T10:22:40.747Z,443.37
2022-10-06T10:23:40.855Z,443.96
2022-10-06T10:24:40.733Z,446.04
2022-10-06T10:25:40.717Z,444.26
2022-10-06T10:26:40.705Z,444.55
2022-10-06T10:27:40.877Z,446.04
2022-10-06T10:28:40.754Z,448.44
2022-10-06T10:29:40.671Z,453.01
2022-10-06T10:30:40.658Z,449.05
2022-10-06T10:31:40.781Z,452.09
2022-10-06T10:32:40.641Z,451.78
2022-10-06T10:33:46.075Z,448.44
2022-10-06T10:34:41.628Z,453.01
2022-10-06T10:35:40.616Z,456.42
2022-10-06T10:36:40.626Z,457.67
2022-10-06T10:37:40.596Z,459.57
2022-10-06T10:38:40.574Z,463.40
2022-10-06T10:39:40.877Z,463.40
2022-10-06T10:40:40.554Z,459.88
2022-10-06T10:41:40.544Z,463.72
2022-10-06T10:42:40.541Z,464.37
2022-10-06T10:43:40.520Z,465.34
2022-10-06T10:44:40.525Z,463.72
2022-10-06T10:45:40.702Z,462.11
2022-10-06T10:46:40.573Z,462.11
2022-10-06T10:47:40.473Z,460.84
2022-10-06T10:48:40.490Z,462.76
2022-10-06T10:49:40.459Z,461.80
2022-10-06T10:50:40.444Z,462.76
2022-10-06T10:51:40.603Z,466.32
2022-10-06T10:54:57.704Z,482.51
2022-10-06T10:55:57.391Z,476.99
2022-10-06T10:56:57.527Z,475.63
2022-10-06T10:57:57.354Z,479.05
2022-10-06T10:58:57.348Z,474.28
2022-10-06T10:59:57.350Z,472.26
2022-10-06T11:00:57.370Z,470.26
2022-10-06T11:01:57.449Z,470.60
2022-10-06T11:02:57.465Z,468.61
2022-10-06T11:03:57.288Z,467.62
2022-10-06T11:04:57.516Z,467.62
2022-10-06T11:05:57.336Z,469.93
2022-10-06T11:06:57.423Z,472.60
2022-10-06T11:07:57.288Z,475.97
2022-10-06T11:08:57.251Z,478.36
2022-10-06T11:09:57.279Z,480.77
2022-10-06T11:10:57.236Z,486.38
2022-10-06T11:11:57.224Z,487.45
2022-10-06T11:12:57.419Z,483.56
2022-10-06T11:13:57.206Z,483.91
2022-10-06T11:14:57.471Z,482.86
2022-10-06T11:15:57.188Z,483.21
2022-10-06T11:16:57.159Z,482.86
2022-10-06T11:17:57.147Z,483.21
2022-10-06T11:18:57.350Z,487.10
2022-10-06T11:19:57.124Z,487.81
2022-10-06T11:20:57.114Z,492.13
2022-10-06T11:21:57.118Z,492.86
2022-10-06T11:22:57.781Z,491.76
2022-10-06T11:23:57.095Z,491.04
2022-10-06T11:24:58.010Z,491.76
2022-10-06T11:25:57.156Z,497.27
2022-10-06T11:26:57.072Z,498.75
2022-10-06T11:27:57.089Z,501.76
2022-10-06T11:28:57.053Z,500.25
2022-10-06T11:29:57.368Z,499.87
2022-10-06T11:30:57.181Z,499.50
2022-10-06T11:31:57.158Z,499.13
2022-10-06T11:32:56.991Z,498.75
2022-10-06T11:33:56.985Z,496.52
2022-10-06T11:34:56.994Z,495.42
2022-10-06T11:35:56.950Z,495.42
2022-10-06T11:36:57.123Z,492.86
2022-10-06T11:37:57.811Z,489.96
2022-10-06T11:38:56.950Z,494.32
2022-10-06T11:39:57.186Z,495.79
2022-10-06T11:40:56.913Z,503.27
2022-10-06T11:41:56.891Z,496.89
2022-10-06T11:42:57.156Z,496.89
2022-10-06T11:43:56.881Z,501.00
2022-10-06T11:44:57.102Z,511.77
2022-10-06T11:45:56.928Z,506.33
2022-10-06T11:46:56.855Z,508.26
2022-10-06T11:47:56.838Z,517.73
2022-10-06T11:48:57.075Z,517.33
2022-10-06T11:49:56.799Z,512.55
2022-10-06T11:50:56.795Z,514.53
2022-10-06T11:51:59.569Z,510.59
2022-10-06T11:52:56.795Z,512.95
2022-10-06T11:53:56.773Z,514.93
2022-10-06T11:54:57.259Z,514.14
2022-10-06T11:55:56.743Z,514.53
2022-10-06T11:56:56.734Z,517.73
2022-10-06T11:57:56.725Z,514.14
2022-10-06T11:58:56.746Z,511.38
2022-10-06T11:59:56.723Z,516.52
2022-10-06T12:00:57.023Z,509.81
2022-10-06T12:01:56.885Z,517.33
2022-10-06T12:02:56.778Z,528.39
2022-10-06T12:03:58.641Z,519.34
2022-10-06T12:04:56.892Z,525.89
2022-10-06T12:05:57.362Z,528.81
2022-10-06T12:06:56.875Z,535.61
2022-10-06T12:07:56.614Z,536.90
2022-10-06T12:08:56.600Z,534.32
2022-10-06T12:09:56.595Z,533.89
2022-10-06T12:10:56.585Z,528.81
2022-10-06T12:11:56.655Z,530.07
2022-10-06T12:13:06.552Z,535.61
2022-10-06T12:15:31.898Z,533.04
2022-10-06T12:17:05.958Z,527.14
2022-10-06T12:17:16.955Z,524.24
2022-10-06T12:17:57.733Z,528.39
2022-10-06T12:18:56.506Z,530.07
2022-10-06T12:19:56.487Z,532.61
2022-10-06T12:20:56.473Z,535.18
2022-10-06T12:21:56.457Z,527.97
2022-10-06T12:22:56.454Z,523.01
2022-10-06T12:23:56.669Z,528.39
2022-10-06T12:24:56.708Z,529.23
2022-10-06T12:25:56.433Z,526.31
2022-10-06T12:26:56.417Z,527.14
2022-10-06T12:27:56.435Z,526.72
2022-10-06T12:28:56.391Z,525.48
2022-10-06T12:29:56.877Z,527.14
2022-10-06T12:30:56.420Z,532.19
2022-10-06T12:31:56.356Z,534.75
2022-10-06T12:32:56.346Z,538.64